createdAt,value
2017-06-29T00:01:48.505Z,83.40
2017-06-29T00:04:14.532Z,83.60
2017-06-29T00:06:40.576Z,83.60
2017-06-29T00:09:06.745Z,83.30
2017-06-29T00:11:32.768Z,83.40
2017-06-29T00:13:58.792Z,83.40
2017-06-29T00:16:24.826Z,83.70
2017-06-29T00:18:51.617Z,84.50
2017-06-29T00:21:17.657Z,83.70
2017-06-29T00:23:43.701Z,84.10
2017-06-29T00:26:09.732Z,83.70
2017-06-29T00:28:35.776Z,83.90
2017-06-29T00:31:01.812Z,83.90
2017-06-29T00:33:27.817Z,83.50
2017-06-29T00:35:54.592Z,83.40
2017-06-29T00:38:20.632Z,83.40
2017-06-29T00:40:46.660Z,83.60
2017-06-29T00:43:13.441Z,83.90
2017-06-29T00:45:39.473Z,84.50
2017-06-29T00:48:05.525Z,84.40
2017-06-29T00:50:31.607Z,84.20
2017-06-29T00:53:04.680Z,83.80
2017-06-29T00:55:30.718Z,84.00
2017-06-29T00:57:56.775Z,84.10
2017-06-29T01:00:22.808Z,84.30
2017-06-29T01:02:48.869Z,84.20
2017-06-29T01:05:14.925Z,84.00
2017-06-29T01:07:41.736Z,84.20
2017-06-29T01:10:07.893Z,84.20
2017-06-29T01:12:33.945Z,84.40
2017-06-29T01:14:59.960Z,84.30
2017-06-29T01:17:25.973Z,84.60
2017-06-29T01:19:52.015Z,84.60
2017-06-29T01:22:18.012Z,84.70
2017-06-29T01:24:44.813Z,85.10
2017-06-29T01:27:10.873Z,85.10
2017-06-29T01:29:44.025Z,84.90
2017-06-29T01:32:10.804Z,85.10
2017-06-29T01:34:36.866Z,85.10
2017-06-29T01:37:03.637Z,85.40
2017-06-29T01:39:29.701Z,85.30
2017-06-29T01:41:55.752Z,85.40
2017-06-29T01:44:21.778Z,85.70
2017-06-29T01:46:47.866Z,85.70
2017-06-29T01:49:13.917Z,85.70
2017-06-29T01:51:40.722Z,85.70
2017-06-29T01:54:06.749Z,85.70
2017-06-29T01:56:33.619Z,85.70
2017-06-29T01:58:59.649Z,85.80
2017-06-29T02:01:25.692Z,85.70
2017-06-29T02:03:51.729Z,85.90
2017-06-29T02:06:17.749Z,85.20
2017-06-29T02:08:43.806Z,84.80
2017-06-29T02:11:09.854Z,84.60
2017-06-29T02:13:35.858Z,85.00
2017-06-29T02:16:02.626Z,85.10
2017-06-29T02:18:28.672Z,85.10
2017-06-29T02:20:54.715Z,85.30
2017-06-29T02:23:20.729Z,85.40
2017-06-29T02:25:46.753Z,85.40
2017-06-29T02:28:12.805Z,85.40
2017-06-29T02:30:38.841Z,85.50
2017-06-29T02:33:04.868Z,85.70
2017-06-29T02:35:30.900Z,85.50
2017-06-29T02:37:56.924Z,85.30
2017-06-29T02:40:22.937Z,85.40
2017-06-29T02:42:48.981Z,85.40
2017-06-29T02:45:15.019Z,85.30
2017-06-29T02:47:41.097Z,85.00
2017-06-29T02:50:07.873Z,84.50
2017-06-29T02:52:33.904Z,84.50
2017-06-29T02:54:59.936Z,84.50
2017-06-29T02:57:26.713Z,84.70
2017-06-29T02:59:52.712Z,84.70
2017-06-29T03:02:18.748Z,84.60
2017-06-29T03:04:44.785Z,84.60
2017-06-29T03:07:11.550Z,84.60
2017-06-29T03:09:37.585Z,84.50
2017-06-29T03:12:03.665Z,84.70
2017-06-29T03:14:29.677Z,84.90
2017-06-29T03:16:55.742Z,85.10
2017-06-29T03:19:22.533Z,85.30
2017-06-29T03:21:48.528Z,85.30
2017-06-29T03:24:14.553Z,85.50
2017-06-29T03:26:40.597Z,85.60
2017-06-29T03:29:06.648Z,85.50
2017-06-29T03:31:32.692Z,85.30
2017-06-29T03:33:58.762Z,85.60
2017-06-29T03:36:24.809Z,85.50
2017-06-29T03:38:50.866Z,85.50
2017-06-29T03:41:16.881Z,85.50
2017-06-29T03:43:42.945Z,85.50
2017-06-29T03:46:09.013Z,85.30
2017-06-29T03:48:35.137Z,85.60
2017-06-29T03:51:01.173Z,85.60
2017-06-29T03:53:27.193Z,85.70
2017-06-29T03:55:53.977Z,86.10
2017-06-29T03:58:20.023Z,85.90
2017-06-29T04:00:46.074Z,85.90
2017-06-29T04:03:12.116Z,85.60
2017-06-29T04:05:38.165Z,85.60
2017-06-29T04:08:04.921Z,85.70
2017-06-29T04:10:30.953Z,85.70
2017-06-29T04:12:56.968Z,85.80
2017-06-29T04:15:23.029Z,85.70
2017-06-29T04:17:49.087Z,85.70
2017-06-29T04:20:15.119Z,86.10
2017-06-29T04:22:41.889Z,86.40
2017-06-29T04:25:07.961Z,85.80
2017-06-29T04:27:34.725Z,85.70
2017-06-29T04:30:00.743Z,85.50
2017-06-29T04:32:26.766Z,85.50
2017-06-29T04:34:52.805Z,85.40
2017-06-29T04:37:18.843Z,85.50
2017-06-29T04:39:44.983Z,85.50
2017-06-29T04:42:11.050Z,85.50
2017-06-29T04:44:37.069Z,85.60
2017-06-29T04:47:03.865Z,85.50
2017-06-29T04:49:29.897Z,85.50
2017-06-29T04:51:55.929Z,85.10
2017-06-29T04:54:21.944Z,85.00
2017-06-29T04:56:48.130Z,84.50
2017-06-29T04:59:14.169Z,84.60
2017-06-29T05:01:40.201Z,84.80
2017-06-29T05:04:06.262Z,84.80
2017-06-29T05:06:32.318Z,84.30
2017-06-29T05:08:58.348Z,84.30
2017-06-29T05:11:24.393Z,84.30
2017-06-29T05:13:50.487Z,84.20
2017-06-29T05:16:16.545Z,84.00
2017-06-29T05:18:42.561Z,83.70
2017-06-29T05:21:08.593Z,83.60
2017-06-29T05:23:36.858Z,83.20
2017-06-29T05:26:02.931Z,82.70
2017-06-29T05:28:28.995Z,82.50
2017-06-29T05:30:55.027Z,82.50
2017-06-29T05:33:21.057Z,82.80
2017-06-29T05:35:47.113Z,82.70
2017-06-29T05:38:13.151Z,81.90
2017-06-29T05:40:39.192Z,82.30
2017-06-29T05:43:05.237Z,81.60
2017-06-29T05:45:32.000Z,80.80
2017-06-29T05:47:58.060Z,80.80
2017-06-29T05:50:24.165Z,81.00
2017-06-29T05:52:50.960Z,81.40
2017-06-29T05:55:16.988Z,81.40
2017-06-29T05:57:43.030Z,80.70
2017-06-29T06:00:09.816Z,80.60
2017-06-29T06:02:35.850Z,80.60
2017-06-29T06:05:01.897Z,80.10
2017-06-29T06:07:27.932Z,80.20
2017-06-29T06:09:53.993Z,79.90
2017-06-29T06:12:20.779Z,78.30
2017-06-29T06:14:46.848Z,78.30
2017-06-29T06:17:12.877Z,77.70
2017-06-29T06:19:40.408Z,77.90
2017-06-29T06:22:06.449Z,77.90
2017-06-29T06:24:32.506Z,79.00
2017-06-29T06:26:59.273Z,77.20
2017-06-29T06:29:25.302Z,77.20
2017-06-29T06:31:51.342Z,76.70
2017-06-29T06:34:18.113Z,77.00
2017-06-29T06:36:44.149Z,77.00
2017-06-29T06:39:10.173Z,76.20
2017-06-29T06:41:36.939Z,75.20
2017-06-29T06:44:02.983Z,75.00
2017-06-29T06:46:29.009Z,75.80
2017-06-29T06:48:55.034Z,74.70
2017-06-29T06:51:21.804Z,74.50
2017-06-29T06:53:47.837Z,74.50
2017-06-29T06:56:13.868Z,74.40
2017-06-29T06:58:40.666Z,74.00
2017-06-29T07:01:06.693Z,73.60
2017-06-29T07:03:32.722Z,73.00
2017-06-29T07:05:58.793Z,73.50
2017-06-29T07:08:24.833Z,72.70
2017-06-29T07:10:51.605Z,71.80
2017-06-29T07:13:17.628Z,71.80
2017-06-29T07:15:43.674Z,72.00
2017-06-29T07:18:10.461Z,72.20
2017-06-29T07:20:36.520Z,72.10
2017-06-29T07:23:02.565Z,72.70
2017-06-29T07:25:28.593Z,72.60
2017-06-29T07:27:54.625Z,72.60
2017-06-29T07:30:21.409Z,71.90
2017-06-29T07:32:47.449Z,72.00
2017-06-29T07:35:13.521Z,71.50
2017-06-29T07:37:39.580Z,71.90
2017-06-29T07:40:06.372Z,72.40
2017-06-29T07:42:32.428Z,72.30
2017-06-29T07:44:59.232Z,71.40
2017-06-29T07:47:25.356Z,71.40
2017-06-29T07:49:51.392Z,70.40
2017-06-29T07:52:17.429Z,68.50
2017-06-29T07:54:43.480Z,69.00
2017-06-29T07:57:10.265Z,68.70
2017-06-29T07:59:36.316Z,69.10
2017-06-29T08:02:02.369Z,69.70
2017-06-29T08:04:28.407Z,69.90
2017-06-29T08:06:54.425Z,70.40
2017-06-29T08:09:20.468Z,69.30
2017-06-29T08:11:47.240Z,69.40
2017-06-29T08:14:13.289Z,69.30
2017-06-29T08:16:39.313Z,67.90
2017-06-29T08:19:06.077Z,68.80
2017-06-29T08:21:32.108Z,68.70
2017-06-29T08:23:58.132Z,68.80
2017-06-29T08:26:24.184Z,67.60
2017-06-29T08:28:50.237Z,68.00
2017-06-29T08:31:16.271Z,68.10
2017-06-29T08:33:43.063Z,68.80
2017-06-29T08:36:09.089Z,68.40
2017-06-29T08:38:35.148Z,68.50
2017-06-29T08:41:01.192Z,68.30
2017-06-29T08:43:27.220Z,68.40
2017-06-29T08:45:54.005Z,66.00
2017-06-29T08:48:20.104Z,65.70
2017-06-29T08:50:46.136Z,66.50
2017-06-29T08:53:12.150Z,65.70
2017-06-29T08:55:38.196Z,65.40
2017-06-29T08:58:04.984Z,66.10
2017-06-29T09:00:31.020Z,65.30
2017-06-29T09:02:57.041Z,65.80
2017-06-29T09:05:23.804Z,63.00
2017-06-29T09:07:49.825Z,62.90
2017-06-29T09:10:15.872Z,63.30
2017-06-29T09:12:41.905Z,63.70
2017-06-29T09:15:07.933Z,62.70
2017-06-29T09:17:33.977Z,63.20
2017-06-29T09:20:00.004Z,63.10
2017-06-29T09:22:26.029Z,62.30
2017-06-29T09:24:52.793Z,62.10
2017-06-29T09:27:18.876Z,62.00
2017-06-29T09:29:52.000Z,64.40
2017-06-29T09:32:18.024Z,62.40
2017-06-29T09:34:44.052Z,61.40
2017-06-29T09:37:10.849Z,59.00
2017-06-29T09:39:36.874Z,59.00
2017-06-29T09:42:03.653Z,57.60
2017-06-29T09:44:29.712Z,58.00
2017-06-29T09:46:55.775Z,60.20
2017-06-29T09:49:21.823Z,60.00
2017-06-29T09:51:48.633Z,57.00
2017-06-29T09:54:14.667Z,57.00
2017-06-29T09:56:40.818Z,56.90
2017-06-29T09:59:06.935Z,57.20
2017-06-29T10:01:32.968Z,55.10
2017-06-29T10:03:58.996Z,54.60
2017-06-29T10:06:25.786Z,58.00
2017-06-29T10:08:51.813Z,58.00
2017-06-29T10:11:17.856Z,57.60
2017-06-29T10:13:44.625Z,59.50
2017-06-29T10:16:10.701Z,59.50
2017-06-29T10:18:36.839Z,59.10
2017-06-29T10:21:02.885Z,57.10
2017-06-29T10:23:28.988Z,58.30
2017-06-29T10:25:55.021Z,57.80
2017-06-29T10:28:21.069Z,55.70
2017-06-29T10:30:47.125Z,55.10
2017-06-29T10:33:13.186Z,55.90
2017-06-29T10:35:39.849Z,52.80
2017-06-29T10:38:05.994Z,52.10
2017-06-29T10:40:32.780Z,54.60
2017-06-29T10:42:58.844Z,54.00
2017-06-29T10:45:24.864Z,54.00
2017-06-29T10:47:50.929Z,53.80
2017-06-29T10:50:17.713Z,51.50
2017-06-29T10:52:43.756Z,51.40
2017-06-29T10:55:09.781Z,51.60
2017-06-29T10:57:36.561Z,53.60
2017-06-29T11:00:02.631Z,53.50
2017-06-29T11:02:28.673Z,54.90
2017-06-29T11:04:54.760Z,52.30
2017-06-29T11:07:21.002Z,52.50
2017-06-29T11:09:47.929Z,52.90
2017-06-29T11:12:13.965Z,52.50
2017-06-29T11:14:39.988Z,52.40
2017-06-29T11:17:06.013Z,51.10
2017-06-29T11:19:32.793Z,50.20
2017-06-29T11:21:58.824Z,50.10
2017-06-29T11:24:24.851Z,50.70
2017-06-29T11:26:51.620Z,50.50
2017-06-29T11:29:17.672Z,50.70
2017-06-29T11:31:43.730Z,50.90
2017-06-29T11:34:09.839Z,50.10
2017-06-29T11:36:35.880Z,51.60
2017-06-29T11:39:01.949Z,52.90
2017-06-29T11:41:27.997Z,53.00
2017-06-29T11:43:54.033Z,54.50
2017-06-29T11:46:20.149Z,54.60
2017-06-29T11:48:46.173Z,55.00
2017-06-29T11:51:12.939Z,53.80
2017-06-29T11:53:38.989Z,53.70
2017-06-29T11:56:05.757Z,55.00
2017-06-29T11:58:31.794Z,54.30
2017-06-29T12:00:57.856Z,54.60
2017-06-29T12:03:23.888Z,53.00
2017-06-29T12:05:49.949Z,53.60
2017-06-29T12:08:15.965Z,52.10
2017-06-29T12:10:41.984Z,49.60
2017-06-29T12:13:08.760Z,47.00
2017-06-29T12:15:34.823Z,46.90
2017-06-29T12:18:00.875Z,48.30
2017-06-29T12:20:26.938Z,47.50
2017-06-29T12:22:53.057Z,46.80
2017-06-29T12:25:19.142Z,48.30
2017-06-29T12:27:45.157Z,48.50
2017-06-29T12:30:11.960Z,52.60
2017-06-29T12:32:38.005Z,52.50
2017-06-29T12:35:04.781Z,50.60
2017-06-29T12:37:30.833Z,50.60
2017-06-29T12:39:57.640Z,49.90
2017-06-29T12:42:23.673Z,49.90
2017-06-29T12:44:49.689Z,51.60
2017-06-29T12:47:15.789Z,50.50
2017-06-29T12:49:42.557Z,53.70
2017-06-29T12:52:08.589Z,53.70
2017-06-29T12:54:34.649Z,52.90
2017-06-29T12:57:00.726Z,54.10
2017-06-29T12:59:27.497Z,52.10
2017-06-29T13:01:53.528Z,52.10
2017-06-29T13:04:19.589Z,49.90
2017-06-29T13:06:45.653Z,52.10
2017-06-29T13:09:11.684Z,50.70
2017-06-29T13:11:37.709Z,50.70
2017-06-29T13:14:04.497Z,48.60
2017-06-29T13:16:30.570Z,48.50
2017-06-29T13:18:56.625Z,47.90
2017-06-29T13:21:22.653Z,45.60
2017-06-29T13:23:48.689Z,45.00
2017-06-29T13:26:14.741Z,45.90
2017-06-29T13:28:40.793Z,43.20
2017-06-29T13:31:07.565Z,40.70
2017-06-29T13:33:33.628Z,40.60
2017-06-29T13:35:59.665Z,41.90
2017-06-29T13:38:25.745Z,41.10
2017-06-29T13:40:51.784Z,40.10
2017-06-29T13:43:17.824Z,39.90
2017-06-29T13:45:43.864Z,41.20
2017-06-29T13:48:10.664Z,38.80
2017-06-29T13:50:36.706Z,38.80
2017-06-29T13:53:03.465Z,43.40
2017-06-29T13:55:29.556Z,43.30
2017-06-29T13:57:55.580Z,44.00
2017-06-29T14:00:21.607Z,43.60
2017-06-29T14:02:47.644Z,46.50
2017-06-29T14:05:13.666Z,46.10
2017-06-29T14:07:40.459Z,43.60
2017-06-29T14:10:06.517Z,43.50
2017-06-29T14:12:32.556Z,42.50
2017-06-29T14:14:58.585Z,43.40
2017-06-29T14:17:24.643Z,45.20
2017-06-29T14:19:50.707Z,42.80
2017-06-29T14:22:16.764Z,43.20
2017-06-29T14:24:42.785Z,46.10
2017-06-29T14:27:08.843Z,46.40
2017-06-29T14:29:34.872Z,46.10
2017-06-29T14:32:01.645Z,46.60
2017-06-29T14:34:27.701Z,46.50
2017-06-29T14:36:54.504Z,47.60
2017-06-29T14:39:20.568Z,47.40
2017-06-29T14:41:46.593Z,48.30
2017-06-29T14:44:12.632Z,48.50
2017-06-29T14:46:38.676Z,48.40
2017-06-29T14:49:05.453Z,49.50
2017-06-29T14:51:31.488Z,49.40
2017-06-29T14:53:57.528Z,51.10
2017-06-29T14:56:23.568Z,51.10
2017-06-29T14:58:49.617Z,53.10
2017-06-29T15:01:15.659Z,53.50
2017-06-29T15:03:41.684Z,53.00
2017-06-29T15:06:07.706Z,53.10
2017-06-29T15:08:33.732Z,53.00
2017-06-29T15:10:59.785Z,53.10
2017-06-29T15:13:26.564Z,55.30
2017-06-29T15:15:52.641Z,55.20
2017-06-29T15:18:18.681Z,55.70
2017-06-29T15:20:44.741Z,56.60
2017-06-29T15:23:10.812Z,56.80
2017-06-29T15:25:36.832Z,56.80
2017-06-29T15:28:03.004Z,57.10
2017-06-29T15:30:29.057Z,57.60
2017-06-29T15:32:55.116Z,59.10
2017-06-29T15:35:21.177Z,58.70
2017-06-29T15:37:47.964Z,58.60
2017-06-29T15:40:14.001Z,58.50
2017-06-29T15:42:40.035Z,58.60
2017-06-29T15:45:06.093Z,59.10
2017-06-29T15:47:32.145Z,59.60
2017-06-29T15:49:58.933Z,58.70
2017-06-29T15:52:24.960Z,59.00
2017-06-29T15:54:51.016Z,60.60
2017-06-29T15:57:17.072Z,59.40
2017-06-29T15:59:43.132Z,60.30
2017-06-29T16:02:09.177Z,60.40
2017-06-29T16:04:35.224Z,59.70
2017-06-29T16:07:02.053Z,60.00
2017-06-29T16:09:28.845Z,59.90
2017-06-29T16:11:54.904Z,59.90
2017-06-29T16:14:20.973Z,59.60
2017-06-29T16:16:47.024Z,59.40
2017-06-29T16:19:13.056Z,59.90
2017-06-29T16:21:39.121Z,59.30
2017-06-29T16:24:05.280Z,60.50
2017-06-29T16:26:31.317Z,60.20
2017-06-29T16:28:57.417Z,60.60
2017-06-29T16:31:23.469Z,60.70
2017-06-29T16:33:50.280Z,61.10
2017-06-29T16:36:16.308Z,61.10
2017-06-29T16:38:42.396Z,61.20
2017-06-29T16:41:08.429Z,61.30
2017-06-29T16:43:34.484Z,61.40
2017-06-29T16:46:00.513Z,63.10
2017-06-29T16:48:26.574Z,63.40
2017-06-29T16:50:52.600Z,64.00
2017-06-29T16:53:18.636Z,64.40
2017-06-29T16:55:44.694Z,64.60
2017-06-29T16:58:10.741Z,65.20
2017-06-29T17:00:36.789Z,65.60
2017-06-29T17:03:02.835Z,65.60
2017-06-29T17:05:28.873Z,66.60
2017-06-29T17:07:54.910Z,66.30
2017-06-29T17:10:21.688Z,66.50
2017-06-29T17:12:47.717Z,67.00
2017-06-29T17:15:13.773Z,67.70
2017-06-29T17:17:39.876Z,67.90
2017-06-29T17:20:05.962Z,68.40
2017-06-29T17:22:32.757Z,70.30
2017-06-29T17:24:58.833Z,69.50
2017-06-29T17:27:24.925Z,70.40
2017-06-29T17:29:51.723Z,72.30
2017-06-29T17:32:17.761Z,72.30
2017-06-29T17:34:43.836Z,73.00
2017-06-29T17:37:09.868Z,73.30
2017-06-29T17:39:35.932Z,73.40
2017-06-29T17:42:01.965Z,74.30
2017-06-29T17:44:28.014Z,73.50
2017-06-29T17:46:54.064Z,74.30
2017-06-29T17:49:20.094Z,74.90
2017-06-29T17:51:46.145Z,75.40
2017-06-29T17:54:12.180Z,76.40
2017-06-29T17:56:38.261Z,77.00
2017-06-29T17:59:05.072Z,76.80
2017-06-29T18:01:31.104Z,76.80
2017-06-29T18:03:57.129Z,76.90
2017-06-29T18:06:23.173Z,77.20
2017-06-29T18:08:49.229Z,77.00
2017-06-29T18:11:15.256Z,77.70
2017-06-29T18:13:41.285Z,78.30
2017-06-29T18:16:07.343Z,78.40
2017-06-29T18:18:33.376Z,78.60
2017-06-29T18:20:59.421Z,78.80
2017-06-29T18:23:25.489Z,79.50
2017-06-29T18:25:51.529Z,79.10
2017-06-29T18:28:24.540Z,80.10
2017-06-29T18:30:51.340Z,80.50
2017-06-29T18:33:17.381Z,80.40
2017-06-29T18:35:44.147Z,79.90
2017-06-29T18:38:10.200Z,79.80
2017-06-29T18:40:36.230Z,80.20
2017-06-29T18:43:03.000Z,80.60
2017-06-29T18:45:29.021Z,80.50
2017-06-29T18:47:55.060Z,80.80
2017-06-29T18:50:21.853Z,81.70
2017-06-29T18:52:47.919Z,81.30
2017-06-29T18:55:13.961Z,81.10
2017-06-29T18:57:40.021Z,81.40
2017-06-29T19:00:06.115Z,81.30
2017-06-29T19:02:32.905Z,81.90
2017-06-29T19:04:58.956Z,81.90
2017-06-29T19:07:25.729Z,81.50
2017-06-29T19:09:51.809Z,81.40
2017-06-29T19:12:18.600Z,82.20
2017-06-29T19:14:44.645Z,82.20
2017-06-29T19:17:10.693Z,82.50
2017-06-29T19:19:36.720Z,82.60
2017-06-29T19:22:02.839Z,82.90
2017-06-29T19:24:28.891Z,82.40
2017-06-29T19:27:01.829Z,82.70
2017-06-29T19:29:27.886Z,82.60
2017-06-29T19:31:53.926Z,83.20
2017-06-29T19:34:19.950Z,83.00
2017-06-29T19:36:46.084Z,82.90
2017-06-29T19:39:12.877Z,83.40
2017-06-29T19:41:39.028Z,83.30
2017-06-29T19:44:05.153Z,83.00
2017-06-29T19:46:32.428Z,83.20
2017-06-29T19:48:59.170Z,83.80
2017-06-29T19:51:25.425Z,83.40
2017-06-29T19:53:51.532Z,83.50
2017-06-29T19:56:17.554Z,83.70
2017-06-29T19:58:43.664Z,82.90
2017-06-29T20:01:09.820Z,82.60
2017-06-29T20:03:35.976Z,83.30
2017-06-29T20:06:02.134Z,84.20
2017-06-29T20:08:28.359Z,83.50
2017-06-29T20:10:54.435Z,83.50
2017-06-29T20:13:20.502Z,83.50
2017-06-29T20:15:47.285Z,83.10
2017-06-29T20:18:13.328Z,83.10
2017-06-29T20:20:40.120Z,83.00
2017-06-29T20:23:06.174Z,83.00
2017-06-29T20:25:32.948Z,83.00
2017-06-29T20:27:59.005Z,83.00
2017-06-29T20:30:25.044Z,82.80
2017-06-29T20:32:51.090Z,83.70
2017-06-29T20:35:32.149Z,84.20
2017-06-29T20:37:58.201Z,84.10
2017-06-29T20:40:24.237Z,83.10
2017-06-29T20:42:50.267Z,83.10
2017-06-29T20:45:16.310Z,82.90
2017-06-29T20:47:43.104Z,83.60
2017-06-29T20:50:09.136Z,83.60
2017-06-29T20:52:35.200Z,83.60
2017-06-29T20:55:01.233Z,83.80
2017-06-29T20:57:27.282Z,83.30
2017-06-29T20:59:53.309Z,83.40
2017-06-29T21:02:19.352Z,84.30
2017-06-29T21:04:45.405Z,84.40
2017-06-29T21:07:12.193Z,84.70
2017-06-29T21:09:38.221Z,84.60
2017-06-29T21:12:04.243Z,85.40
2017-06-29T21:14:31.020Z,86.00
2017-06-29T21:16:57.054Z,85.50
2017-06-29T21:19:23.112Z,85.80
2017-06-29T21:21:49.157Z,85.60
2017-06-29T21:24:15.206Z,85.60
2017-06-29T21:26:41.981Z,85.80
2017-06-29T21:29:08.043Z,85.80
2017-06-29T21:31:34.832Z,86.10
2017-06-29T21:34:00.880Z,86.10
2017-06-29T21:36:27.713Z,85.70
2017-06-29T21:38:54.503Z,86.00
2017-06-29T21:41:20.565Z,86.00
2017-06-29T21:43:47.097Z,86.30
2017-06-29T21:46:13.153Z,86.40
2017-06-29T21:48:39.189Z,86.80
2017-06-29T21:51:05.988Z,87.00
2017-06-29T21:53:32.018Z,87.00
2017-06-29T21:55:59.802Z,87.10
2017-06-29T21:58:25.850Z,87.20
2017-06-29T22:00:51.893Z,86.80
2017-06-29T22:03:17.943Z,87.70
2017-06-29T22:05:43.976Z,88.10
2017-06-29T22:08:10.014Z,88.00
2017-06-29T22:10:36.042Z,88.00
2017-06-29T22:13:02.145Z,88.40
2017-06-29T22:15:28.188Z,88.40
2017-06-29T22:17:54.633Z,88.00
2017-06-29T22:20:20.668Z,88.40
2017-06-29T22:22:47.479Z,88.60
2017-06-29T22:25:13.533Z,88.00
2017-06-29T22:27:39.572Z,88.40
2017-06-29T22:30:05.613Z,88.50
2017-06-29T22:32:32.389Z,89.10
2017-06-29T22:34:58.440Z,89.10
2017-06-29T22:37:25.213Z,90.00
2017-06-29T22:39:51.274Z,89.40
2017-06-29T22:42:17.305Z,89.20
2017-06-29T22:44:43.337Z,89.60
2017-06-29T22:47:09.401Z,89.70
2017-06-29T22:49:35.470Z,89.40
2017-06-29T22:52:01.500Z,89.20
2017-06-29T22:54:27.520Z,89.10
2017-06-29T22:56:53.573Z,89.00
2017-06-29T22:59:19.592Z,89.00
2017-06-29T23:01:45.624Z,89.20
2017-06-29T23:04:11.718Z,89.30
2017-06-29T23:06:37.757Z,89.50
2017-06-29T23:09:03.821Z,89.50
2017-06-29T23:11:29.845Z,89.70
2017-06-29T23:13:55.868Z,90.00
2017-06-29T23:16:21.896Z,90.10
2017-06-29T23:18:47.929Z,90.00
2017-06-29T23:21:14.689Z,90.00
2017-06-29T23:23:40.753Z,90.00
2017-06-29T23:26:06.771Z,90.00
2017-06-29T23:28:33.540Z,90.10
2017-06-29T23:30:59.602Z,90.00
2017-06-29T23:33:25.665Z,89.60
2017-06-29T23:35:51.684Z,90.00
2017-06-29T23:38:17.704Z,90.30
2017-06-29T23:40:43.732Z,89.80
2017-06-29T23:43:09.777Z,89.80
2017-06-29T23:45:35.849Z,89.60
2017-06-29T23:48:01.917Z,89.00
2017-06-29T23:50:28.074Z,89.60
2017-06-29T23:52:54.113Z,88.90
2017-06-29T23:55:20.127Z,89.00
2017-06-29T23:57:46.165Z,89.30
